sensor_id;sensor_type;location;lat;lon;timestamp;pressure;altitude;pressure_sealevel;temperature;humidity
70370;BME280;57790;51.356;-2.906;2022-12-11T00:01:45;101032.00;;;11.86;100.00
70370;BME280;57790;51.356;-2.906;2022-12-11T00:04:45;101023.69;;;11.81;100.00
70370;BME280;57790;51.356;-2.906;2022-12-11T00:07:46;101026.19;;;11.82;100.00
70370;BME280;57790;51.356;-2.906;2022-12-11T00:10:47;101026.16;;;11.74;100.00
70370;BME280;57790;51.356;-2.906;2022-12-11T00:13:49;101018.66;;;11.70;100.00
70370;BME280;57790;51.356;-2.906;2022-12-11T00:16:49;101021.97;;;11.63;100.00
70370;BME280;57790;51.356;-2.906;2022-12-11T00:19:50;101025.41;;;11.56;100.00
70370;BME280;57790;51.356;-2.906;2022-12-11T00:22:50;101017.31;;;11.57;100.00
70370;BME280;57790;51.356;-2.906;2022-12-11T00:25:50;101024.91;;;11.52;100.00
70370;BME280;57790;51.356;-2.906;2022-12-11T00:28:53;101025.75;;;11.45;100.00
70370;BME280;57790;51.356;-2.906;2022-12-11T00:31:54;101020.06;;;11.40;100.00
70370;BME280;57790;51.356;-2.906;2022-12-11T00:34:54;101019.72;;;11.43;100.00
70370;BME280;57790;51.356;-2.906;2022-12-11T00:37:54;101011.94;;;11.41;100.00
70370;BME280;57790;51.356;-2.906;2022-12-11T00:40:58;101015.25;;;11.35;100.00
70370;BME280;57790;51.356;-2.906;2022-12-11T00:43:59;101010.59;;;11.37;100.00
70370;BME280;57790;51.356;-2.906;2022-12-11T00:46:59;101006.78;;;11.31;100.00
70370;BME280;57790;51.356;-2.906;2022-12-11T00:49:59;100999.66;;;11.32;100.00
70370;BME280;57790;51.356;-2.906;2022-12-11T00:53:00;100995.78;;;11.26;100.00
70370;BME280;57790;51.356;-2.906;2022-12-11T00:56:01;101003.41;;;11.21;100.00
70370;BME280;57790;51.356;-2.906;2022-12-11T00:59:01;101009.38;;;11.15;100.00
70370;BME280;57790;51.356;-2.906;2022-12-11T01:02:02;101004.56;;;11.19;100.00
70370;BME280;57790;51.356;-2.906;2022-12-11T01:05:03;100997.41;;;11.11;100.00
70370;BME280;57790;51.356;-2.906;2022-12-11T01:08:04;101003.91;;;11.17;100.00
70370;BME280;57790;51.356;-2.906;2022-12-11T01:11:07;101009.38;;;11.15;100.00
70370;BME280;57790;51.356;-2.906;2022-12-11T01:14:10;101004.84;;;11.08;100.00
70370;BME280;57790;51.356;-2.906;2022-12-11T01:17:10;101001.19;;;11.09;100.00
70370;BME280;57790;51.356;-2.906;2022-12-11T01:20:11;101014.13;;;11.03;100.00
70370;BME280;57790;51.356;-2.906;2022-12-11T01:23:12;100998.53;;;11.09;100.00
70370;BME280;57790;51.356;-2.906;2022-12-11T01:26:13;100995.41;;;11.13;100.00
70370;BME280;57790;51.356;-2.906;2022-12-11T01:29:14;101001.88;;;11.11;100.00
70370;BME280;57790;51.356;-2.906;2022-12-11T01:32:14;100998.22;;;11.12;100.00
70370;BME280;57790;51.356;-2.906;2022-12-11T01:35:16;100994.13;;;11.17;100.00
70370;BME280;57790;51.356;-2.906;2022-12-11T01:38:16;100987.81;;;11.18;100.00
70370;BME280;57790;51.356;-2.906;2022-12-11T01:41:17;100982.97;;;11.14;100.00
70370;BME280;57790;51.356;-2.906;2022-12-11T01:47:18;100983.13;;;11.12;100.00
70370;BME280;57790;51.356;-2.906;2022-12-11T01:50:19;100981.31;;;11.13;100.00
70370;BME280;57790;51.356;-2.906;2022-12-11T01:53:34;100983.13;;;11.12;100.00
70370;BME280;57790;51.356;-2.906;2022-12-11T01:56:37;100976.31;;;11.01;100.00
70370;BME280;57790;51.356;-2.906;2022-12-11T01:59:42;100984.94;;;11.03;100.00
70370;BME280;57790;51.356;-2.906;2022-12-11T02:02:43;100984.09;;;11.03;100.00
70370;BME280;57790;51.356;-2.906;2022-12-11T02:05:44;100984.28;;;11.01;100.00
70370;BME280;57790;51.356;-2.906;2022-12-11T02:08:44;100992.41;;;11.00;100.00
70370;BME280;57790;51.356;-2.906;2022-12-11T02:18:19;100991.25;;;11.02;100.00
70370;BME280;57790;51.356;-2.906;2022-12-11T02:21:27;100986.94;;;11.01;100.00
70370;BME280;57790;51.356;-2.906;2022-12-11T02:24:43;100988.59;;;11.02;100.00
70370;BME280;57790;51.356;-2.906;2022-12-11T02:28:01;100985.09;;;11.02;100.00
70370;BME280;57790;51.356;-2.906;2022-12-11T02:31:06;100980.94;;;10.99;100.00
70370;BME280;57790;51.356;-2.906;2022-12-11T02:34:21;100985.94;;;11.02;100.00
70370;BME280;57790;51.356;-2.906;2022-12-11T02:37:26;100972.66;;;11.02;100.00
70370;BME280;57790;51.356;-2.906;2022-12-11T02:40:30;100977.97;;;11.02;100.00
70370;BME280;57790;51.356;-2.906;2022-12-11T02:43:33;100972.13;;;10.99;100.00
70370;BME280;57790;51.356;-2.906;2022-12-11T02:46:34;100980.56;;;10.94;100.00
70370;BME280;57790;51.356;-2.906;2022-12-11T02:49:36;100976.25;;;10.93;100.00
70370;BME280;57790;51.356;-2.906;2022-12-11T02:52:40;100958.84;;;10.91;100.00
70370;BME280;57790;51.356;-2.906;2022-12-11T02:55:43;100952.38;;;10.85;100.00
70370;BME280;57790;51.356;-2.906;2022-12-11T02:58:48;100953.88;;;10.88;100.00
70370;BME280;57790;51.356;-2.906;2022-12-11T03:01:49;100954.88;;;10.95;100.00
70370;BME280;57790;51.356;-2.906;2022-12-11T03:04:50;100943.81;;;10.99;100.00
70370;BME280;57790;51.356;-2.906;2022-12-11T03:07:50;100946.16;;;11.11;100.00
70370;BME280;57790;51.356;-2.906;2022-12-11T03:10:50;100946.97;;;11.11;100.00
70370;BME280;57790;51.356;-2.906;2022-12-11T03:13:51;100942.66;;;11.10;100.00
70370;BME280;57790;51.356;-2.906;2022-12-11T03:18:05;100933.41;;;11.14;100.00
70370;BME280;57790;51.356;-2.906;2022-12-11T03:23:50;100935.56;;;11.19;100.00
70370;BME280;57790;51.356;-2.906;2022-12-11T03:27:00;100927.44;;;11.20;100.00
70370;BME280;57790;51.356;-2.906;2022-12-11T03:30:08;100922.47;;;11.17;100.00
70370;BME280;57790;51.356;-2.906;2022-12-11T03:33:13;100929.25;;;11.12;100.00
70370;BME280;57790;51.356;-2.906;2022-12-11T03:36:24;100927.41;;;11.12;100.00
70370;BME280;57790;51.356;-2.906;2022-12-11T03:39:30;100918.94;;;11.09;100.00
70370;BME280;57790;51.356;-2.906;2022-12-11T03:42:33;100916.63;;;11.14;100.00
70370;BME280;57790;51.356;-2.906;2022-12-11T03:45:34;100918.63;;;11.12;100.00
70370;BME280;57790;51.356;-2.906;2022-12-11T03:48:39;100910.66;;;11.12;100.00
70370;BME280;57790;51.356;-2.906;2022-12-11T03:51:42;100906.19;;;11.12;100.00
70370;BME280;57790;51.356;-2.906;2022-12-11T03:54:46;100911.81;;;11.09;100.00
70370;BME280;57790;51.356;-2.906;2022-12-11T03:57:48;100902.22;;;11.08;100.00
70370;BME280;57790;51.356;-2.906;2022-12-11T04:00:49;100900.03;;;11.03;100.00
70370;BME280;57790;51.356;-2.906;2022-12-11T04:03:49;100901.38;;;10.99;100.00
70370;BME280;57790;51.356;-2.906;2022-12-11T04:06:49;100900.16;;;10.94;100.00
70370;BME280;57790;51.356;-2.906;2022-12-11T04:09:50;100894.69;;;10.87;100.00
70370;BME280;57790;51.356;-2.906;2022-12-11T04:12:50;100897.19;;;10.89;100.00
70370;BME280;57790;51.356;-2.906;2022-12-11T04:15:50;100900.47;;;10.83;100.00
70370;BME280;57790;51.356;-2.906;2022-12-11T04:18:51;100894.81;;;10.78;100.00
70370;BME280;57790;51.356;-2.906;2022-12-11T04:22:14;100901.94;;;10.77;100.00
70370;BME280;57790;51.356;-2.906;2022-12-11T04:25:34;100897.94;;;10.73;100.00
70370;BME280;57790;51.356;-2.906;2022-12-11T04:28:35;100899.09;;;10.70;100.00
70370;BME280;57790;51.356;-2.906;2022-12-11T04:31:35;100887.81;;;10.68;100.00
70370;BME280;57790;51.356;-2.906;2022-12-11T04:34:36;100886.97;;;10.68;100.00
70370;BME280;57790;51.356;-2.906;2022-12-11T04:37:37;100893.75;;;10.62;100.00
70370;BME280;57790;51.356;-2.906;2022-12-11T04:40:37;100890.28;;;10.62;100.00
70370;BME280;57790;51.356;-2.906;2022-12-11T04:43:38;100897.56;;;10.60;100.00
70370;BME280;57790;51.356;-2.906;2022-12-11T04:46:39;100891.59;;;10.58;100.00
70370;BME280;57790;51.356;-2.906;2022-12-11T04:49:39;100903.03;;;10.58;100.00
70370;BME280;57790;51.356;-2.906;2022-12-11T04:52:40;100891.28;;;10.61;100.00
70370;BME280;57790;51.356;-2.906;2022-12-11T04:55:40;100894.09;;;10.59;100.00
70370;BME280;57790;51.356;-2.906;2022-12-11T04:58:42;100894.25;;;10.66;100.00
70370;BME280;57790;51.356;-2.906;2022-12-11T05:01:43;100894.91;;;10.60;100.00
70370;BME280;57790;51.356;-2.906;2022-12-11T05:04:43;100887.41;;;10.55;100.00
70370;BME280;57790;51.356;-2.906;2022-12-11T05:07:43;100890.72;;;10.49;100.00
70370;BME280;57790;51.356;-2.906;2022-12-11T05:10:44;100895.69;;;10.52;100.00
70370;BME280;57790;51.356;-2.906;2022-12-11T05:13:45;100899.84;;;10.55;100.00
70370;BME280;57790;51.356;-2.906;2022-12-11T05:16:45;100895.69;;;10.52;100.00
70370;BME280;57790;51.356;-2.906;2022-12-11T05:19:49;100900.81;;;10.46;100.00
70370;BME280;57790;51.356;-2.906;2022-12-11T05:22:50;100898.16;;;10.46;100.00
70370;BME280;57790;51.356;-2.906;2022-12-11T05:25:53;100888.00;;;10.41;100.00
70370;BME280;57790;51.356;-2.906;2022-12-11T05:28:55;100898.59;;;10.41;100.00
70370;BME280;57790;51.356;-2.906;2022-12-11T05:31:55;100886.34;;;10.40;100.00
70370;BME280;57790;51.356;-2.906;2022-12-11T05:34:55;100890.81;;;10.39;100.00
70370;BME280;57790;51.356;-2.906;2022-12-11T05:37:56;100888.16;;;10.39;100.00
70370;BME280;57790;51.356;-2.906;2022-12-11T05:40:59;100879.91;;;10.42;100.00
70370;BME280;57790;51.356;-2.906;2022-12-11T05:44:00;100872.97;;;10.41;100.00
70370;BME280;57790;51.356;-2.906;2022-12-11T05:47:00;100879.91;;;10.42;100.00
70370;BME280;57790;51.356;-2.906;2022-12-11T05:50:01;100872.97;;;10.41;100.00
70370;BME280;57790;51.356;-2.906;2022-12-11T05:53:01;100869.00;;;10.46;100.00
70370;BME280;57790;51.356;-2.906;2022-12-11T05:56:09;100865.84;;;10.42;100.00
70370;BME280;57790;51.356;-2.906;2022-12-11T05:59:10;100866.66;;;10.42;100.00
70370;BME280;57790;51.356;-2.906;2022-12-11T06:02:10;100872.44;;;10.38;100.00
70370;BME280;57790;51.356;-2.906;2022-12-11T06:05:10;100869.09;;;10.36;100.00
70370;BME280;57790;51.356;-2.906;2022-12-11T06:08:11;100876.06;;;10.37;100.00
70370;BME280;57790;51.356;-2.906;2022-12-11T06:11:12;100880.53;;;10.36;100.00
70370;BME280;57790;51.356;-2.906;2022-12-11T06:14:15;100871.91;;;10.34;100.00
70370;BME280;57790;51.356;-2.906;2022-12-11T06:17:16;100879.88;;;10.34;100.00
70370;BME280;57790;51.356;-2.906;2022-12-11T06:20:16;100883.03;;;10.38;100.00
70370;BME280;57790;51.356;-2.906;2022-12-11T06:23:16;100883.84;;;10.38;100.00
70370;BME280;57790;51.356;-2.906;2022-12-11T06:26:18;100880.84;;;10.33;100.00
70370;BME280;57790;51.356;-2.906;2022-12-11T06:29:18;100877.53;;;10.31;100.00
70370;BME280;57790;51.356;-2.906;2022-12-11T06:32:18;100877.22;;;10.34;100.00
70370;BME280;57790;51.356;-2.906;2022-12-11T06:35:19;100882.00;;;10.31;100.00
70370;BME280;57790;51.356;-2.906;2022-12-11T06:38:19;100875.22;;;10.28;100.00
70370;BME280;57790;51.356;-2.906;2022-12-11T06:41:19;100877.16;;;10.26;100.00
70370;BME280;57790;51.356;-2.906;2022-12-11T06:44:20;100887.09;;;10.24;100.00
70370;BME280;57790;51.356;-2.906;2022-12-11T06:47:20;100875.34;;;10.27;100.00
70370;BME280;57790;51.356;-2.906;2022-12-11T06:50:20;100878.84;;;10.27;100.00
70370;BME280;57790;51.356;-2.906;2022-12-11T06:53:21;100878.59;;;10.21;100.00
70370;BME280;57790;51.356;-2.906;2022-12-11T06:56:22;100872.19;;;10.23;100.00
70370;BME280;57790;51.356;-2.906;2022-12-11T06:59:23;100866.22;;;10.21;100.00
70370;BME280;57790;51.356;-2.906;2022-12-11T07:02:23;100867.88;;;10.22;100.00
70370;BME280;57790;51.356;-2.906;2022-12-11T07:05:24;100861.88;;;10.20;100.00
70370;BME280;57790;51.356;-2.906;2022-12-11T07:08:26;100861.19;;;10.18;100.00
70370;BME280;57790;51.356;-2.906;2022-12-11T07:11:27;100863.84;;;10.18;100.00
70370;BME280;57790;51.356;-2.906;2022-12-11T07:14:27;100859.53;;;10.17;100.00
70370;BME280;57790;51.356;-2.906;2022-12-11T07:17:28;100863.50;;;10.13;100.00
70370;BME280;57790;51.356;-2.906;2022-12-11T07:20:28;100874.09;;;10.13;100.00
70370;BME280;57790;51.356;-2.906;2022-12-11T07:23:29;100868.09;;;10.11;100.00
70370;BME280;57790;51.356;-2.906;2022-12-11T07:26:29;100867.66;;;10.16;100.00
70370;BME280;57790;51.356;-2.906;2022-12-11T07:29:29;100867.09;;;10.12;100.00
70370;BME280;57790;51.356;-2.906;2022-12-11T07:32:30;100873.09;;;10.14;100.00
70370;BME280;57790;51.356;-2.906;2022-12-11T07:35:33;100874.22;;;10.29;100.00
70370;BME280;57790;51.356;-2.906;2022-12-11T07:38:34;100861.44;;;10.67;100.00
70370;BME280;57790;51.356;-2.906;2022-12-11T07:41:34;100861.75;;;11.06;100.00
70370;BME280;57790;51.356;-2.906;2022-12-11T07:44:35;100860.13;;;11.21;100.00
70370;BME280;57790;51.356;-2.906;2022-12-11T07:47:35;100861.28;;;11.35;100.00
70370;BME280;57790;51.356;-2.906;2022-12-11T07:50:36;100866.78;;;11.58;100.00
70370;BME280;57790;51.356;-2.906;2022-12-11T07:53:37;100864.78;;;11.76;99.92
70370;BME280;57790;51.356;-2.906;2022-12-11T07:56:37;100868.47;;;11.91;98.86
70370;BME280;57790;51.356;-2.906;2022-12-11T07:59:37;100861.16;;;12.02;97.24
70370;BME280;57790;51.356;-2.906;2022-12-11T08:02:39;100863.63;;;12.03;98.08
70370;BME280;57790;51.356;-2.906;2022-12-11T08:05:47;100861.28;;;12.16;97.47
70370;BME280;57790;51.356;-2.906;2022-12-11T08:08:48;100862.91;;;12.34;95.68
70370;BME280;57790;51.356;-2.906;2022-12-11T08:11:49;100866.50;;;12.49;95.00
70370;BME280;57790;51.356;-2.906;2022-12-11T08:14:50;100862.66;;;12.91;99.47
70370;BME280;57790;51.356;-2.906;2022-12-11T08:17:50;100859.56;;;12.79;92.65
70370;BME280;57790;51.356;-2.906;2022-12-11T08:20:51;100871.47;;;12.91;92.45
70370;BME280;57790;51.356;-2.906;2022-12-11T08:23:52;100865.97;;;12.93;92.48
70370;BME280;57790;51.356;-2.906;2022-12-11T08:26:52;100867.06;;;13.06;92.10
70370;BME280;57790;51.356;-2.906;2022-12-11T08:29:53;100871.00;;;13.10;91.21
70370;BME280;57790;51.356;-2.906;2022-12-11T08:32:53;100871.47;;;13.22;90.90
70370;BME280;57790;51.356;-2.906;2022-12-11T08:35:53;100874.94;;;13.31;90.93
70370;BME280;57790;51.356;-2.906;2022-12-11T08:38:54;100864.19;;;13.39;89.74
70370;BME280;57790;51.356;-2.906;2022-12-11T08:41:55;100874.25;;;13.52;90.00
70370;BME280;57790;51.356;-2.906;2022-12-11T08:44:56;100869.72;;;13.60;90.60
70370;BME280;57790;51.356;-2.906;2022-12-11T08:47:59;100865.47;;;13.89;89.32
70370;BME280;57790;51.356;-2.906;2022-12-11T08:51:01;100873.28;;;13.90;89.08
70370;BME280;57790;51.356;-2.906;2022-12-11T08:54:03;100868.69;;;14.14;88.67
70370;BME280;57790;51.356;-2.906;2022-12-11T08:57:03;100875.16;;;14.05;88.67
70370;BME280;57790;51.356;-2.906;2022-12-11T09:00:06;100870.53;;;13.98;88.94
70370;BME280;57790;51.356;-2.906;2022-12-11T09:03:08;100873.84;;;14.00;89.10
70370;BME280;57790;51.356;-2.906;2022-12-11T09:06:11;100874.34;;;14.19;87.82
70370;BME280;57790;51.356;-2.906;2022-12-11T09:09:12;100874.22;;;14.27;87.45
70370;BME280;57790;51.356;-2.906;2022-12-11T09:12:12;100875.88;;;14.28;87.71
70370;BME280;57790;51.356;-2.906;2022-12-11T09:15:13;100881.78;;;14.23;87.71
70370;BME280;57790;51.356;-2.906;2022-12-11T09:18:13;100876.81;;;14.20;88.49
70370;BME280;57790;51.356;-2.906;2022-12-11T09:21:16;100882.78;;;14.08;89.11
70370;BME280;57790;51.356;-2.906;2022-12-11T09:24:17;100883.84;;;13.98;89.79
70370;BME280;57790;51.356;-2.906;2022-12-11T09:27:17;100882.19;;;13.97;90.59
70370;BME280;57790;51.356;-2.906;2022-12-11T09:30:20;100884.13;;;13.89;90.96
70370;BME280;57790;51.356;-2.906;2022-12-11T09:33:20;100878.66;;;13.82;91.52
70370;BME280;57790;51.356;-2.906;2022-12-11T09:36:22;100879.91;;;13.72;92.05
70370;BME280;57790;51.356;-2.906;2022-12-11T09:39:22;100880.19;;;13.62;92.90
70370;BME280;57790;51.356;-2.906;2022-12-11T09:42:29;100875.88;;;13.61;93.09
70370;BME280;57790;51.356;-2.906;2022-12-11T09:45:30;100881.06;;;13.54;93.88
70370;BME280;57790;51.356;-2.906;2022-12-11T09:48:32;100882.63;;;13.49;95.03
70370;BME280;57790;51.356;-2.906;2022-12-11T09:51:42;100875.50;;;13.41;94.98
70370;BME280;57790;51.356;-2.906;2022-12-11T09:55:15;100886.69;;;13.36;95.78
70370;BME280;57790;51.356;-2.906;2022-12-11T09:58:24;100897.09;;;13.23;95.83
70370;BME280;57790;51.356;-2.906;2022-12-11T10:01:32;100890.47;;;13.19;96.47
70370;BME280;57790;51.356;-2.906;2022-12-11T10:07:53;100898.09;;;13.14;98.00
70370;BME280;57790;51.356;-2.906;2022-12-11T10:11:41;100897.16;;;13.07;97.81
70370;BME280;57790;51.356;-2.906;2022-12-11T10:18:25;100903.69;;;12.96;98.30
70370;BME280;57790;51.356;-2.906;2022-12-11T10:21:31;100898.91;;;12.92;98.97
70370;BME280;57790;51.356;-2.906;2022-12-11T10:24:54;100907.75;;;12.84;99.78
70370;BME280;57790;51.356;-2.906;2022-12-11T10:27:56;100901.59;;;12.84;99.94
70370;BME280;57790;51.356;-2.906;2022-12-11T10:34:11;100898.16;;;12.75;99.30
70370;BME280;57790;51.356;-2.906;2022-12-11T10:37:12;100896.00;;;12.70;98.66
70370;BME280;57790;51.356;-2.906;2022-12-11T10:40:14;100895.81;;;12.72;97.82
70370;BME280;57790;51.356;-2.906;2022-12-11T10:43:16;100887.84;;;12.72;97.33
70370;BME280;57790;51.356;-2.906;2022-12-11T10:46:21;100896.69;;;12.64;96.00
70370;BME280;57790;51.356;-2.906;2022-12-11T10:49:29;100905.81;;;12.70;95.78
70370;BME280;57790;51.356;-2.906;2022-12-11T10:52:43;100898.66;;;12.70;95.46
70370;BME280;57790;51.356;-2.906;2022-12-11T10:55:46;100886.81;;;12.81;100.00
70370;BME280;57790;51.356;-2.906;2022-12-11T10:58:48;100885.69;;;12.75;100.00
70370;BME280;57790;51.356;-2.906;2022-12-11T11:01:49;100895.16;;;12.70;100.00
70370;BME280;57790;51.356;-2.906;2022-12-11T11:04:50;100887.00;;;12.71;100.00
70370;BME280;57790;51.356;-2.906;2022-12-11T11:11:31;100884.22;;;12.65;100.00
70370;BME280;57790;51.356;-2.906;2022-12-11T11:14:32;100886.19;;;12.71;100.00
70370;BME280;57790;51.356;-2.906;2022-12-11T11:17:46;100891.38;;;12.64;100.00
70370;BME280;57790;51.356;-2.906;2022-12-11T11:20:47;100880.53;;;12.74;100.00
70370;BME280;57790;51.356;-2.906;2022-12-11T11:23:49;100883.84;;;12.76;100.00
70370;BME280;57790;51.356;-2.906;2022-12-11T11:26:49;100887.63;;;12.81;100.00
70370;BME280;57790;51.356;-2.906;2022-12-11T11:29:53;100875.50;;;12.79;100.00
70370;BME280;57790;51.356;-2.906;2022-12-11T11:32:58;100872.03;;;12.78;100.00
70370;BME280;57790;51.356;-2.906;2022-12-11T11:36:04;100872.03;;;12.78;100.00
70370;BME280;57790;51.356;-2.906;2022-12-11T11:42:18;100873.22;;;12.76;100.00
70370;BME280;57790;51.356;-2.906;2022-12-11T11:45:32;100882.69;;;12.70;100.00
70370;BME280;57790;51.356;-2.906;2022-12-11T11:51:55;100868.91;;;12.75;100.00
70370;BME280;57790;51.356;-2.906;2022-12-11T11:55:13;100871.72;;;12.73;100.00
70370;BME280;57790;51.356;-2.906;2022-12-11T11:58:19;100874.72;;;12.70;100.00
70370;BME280;57790;51.356;-2.906;2022-12-11T12:01:24;100874.41;;;12.65;100.00
70370;BME280;57790;51.356;-2.906;2022-12-11T12:04:31;100881.38;;;12.66;100.00
70370;BME280;57790;51.356;-2.906;2022-12-11T12:07:52;100869.09;;;12.57;100.00
70370;BME280;57790;51.356;-2.906;2022-12-11T12:14:47;100870.94;;;12.57;100.00
70370;BME280;57790;51.356;-2.906;2022-12-11T12:17:54;100872.47;;;12.51;100.00
70370;BME280;57790;51.356;-2.906;2022-12-11T12:21:25;100869.16;;;12.41;100.00
70370;BME280;57790;51.356;-2.906;2022-12-11T12:24:57;100860.38;;;12.40;100.00
70370;BME280;57790;51.356;-2.906;2022-12-11T12:28:30;100857.75;;;12.32;100.00
70370;BME280;57790;51.356;-2.906;2022-12-11T12:38:35;100857.09;;;12.30;100.00
70370;BME280;57790;51.356;-2.906;2022-12-11T12:41:53;100859.38;;;12.41;100.00
70370;BME280;57790;51.356;-2.906;2022-12-11T12:44:59;100847.69;;;13.44;100.00
70370;BME280;57790;51.356;-2.906;2022-12-11T12:48:02;100851.59;;;13.56;100.00
70370;BME280;57790;51.356;-2.906;2022-12-11T12:51:03;100853.09;;;13.73;100.00
70370;BME280;57790;51.356;-2.906;2022-12-11T12:54:05;100848.50;;;14.05;100.00
70370;BME280;57790;51.356;-2.906;2022-12-11T12:57:08;100844.06;;;14.12;100.00
70370;BME280;57790;51.356;-2.906;2022-12-11T13:00:09;100843.81;;;14.21;100.00
70370;BME280;57790;51.356;-2.906;2022-12-11T13:03:18;100841.34;;;14.49;100.00
70370;BME280;57790;51.356;-2.906;2022-12-11T13:06:37;100836.06;;;14.71;100.00
70370;BME280;57790;51.356;-2.906;2022-12-11T13:09:39;100832.53;;;14.85;100.00
70370;BME280;57790;51.356;-2.906;2022-12-11T13:12:43;100834.94;;;14.80;100.00
70370;BME280;57790;51.356;-2.906;2022-12-11T13:15:44;100831.91;;;14.83;100.00
70370;BME280;57790;51.356;-2.906;2022-12-11T13:18:46;100837.44;;;14.81;100.00
70370;BME280;57790;51.356;-2.906;2022-12-11T13:25:27;100839.09;;;15.04;100.00
70370;BME280;57790;51.356;-2.906;2022-12-11T13:28:48;100835.97;;;15.36;100.00
70370;BME280;57790;51.356;-2.906;2022-12-11T13:31:59;100840.13;;;15.45;100.00
70370;BME280;57790;51.356;-2.906;2022-12-11T13:35:05;100833.47;;;15.77;100.00
70370;BME280;57790;51.356;-2.906;2022-12-11T13:38:16;100835.94;;;16.07;99.31
70370;BME280;57790;51.356;-2.906;2022-12-11T13:41:19;100833.97;;;14.51;96.70
70370;BME280;57790;51.356;-2.906;2022-12-11T13:44:28;100839.00;;;14.02;100.00
70370;BME280;57790;51.356;-2.906;2022-12-11T13:47:32;100835.41;;;13.80;100.00
70370;BME280;57790;51.356;-2.906;2022-12-11T13:50:35;100832.69;;;13.65;100.00
70370;BME280;57790;51.356;-2.906;2022-12-11T13:53:35;100824.91;;;13.64;100.00
70370;BME280;57790;51.356;-2.906;2022-12-11T13:56:35;100836.97;;;13.52;100.00
70370;BME280;57790;51.356;-2.906;2022-12-11T13:59:40;100830.88;;;13.43;100.00
70370;BME280;57790;51.356;-2.906;2022-12-11T14:02:40;100840.41;;;13.37;100.00
70370;BME280;57790;51.356;-2.906;2022-12-11T14:05:41;100829.66;;;13.31;100.00
70370;BME280;57790;51.356;-2.906;2022-12-11T14:08:43;100840.38;;;13.23;100.00
70370;BME280;57790;51.356;-2.906;2022-12-11T14:11:46;100832.56;;;13.13;100.00
70370;BME280;57790;51.356;-2.906;2022-12-11T14:14:52;100839.28;;;13.01;100.00
70370;BME280;57790;51.356;-2.906;2022-12-11T14:17:57;100840.47;;;12.98;100.00
70370;BME280;57790;51.356;-2.906;2022-12-11T14:21:00;100840.00;;;12.95;100.00
70370;BME280;57790;51.356;-2.906;2022-12-11T14:24:02;100852.66;;;12.93;100.00
70370;BME280;57790;51.356;-2.906;2022-12-11T14:27:15;100851.56;;;12.79;100.00
70370;BME280;57790;51.356;-2.906;2022-12-11T14:30:24;100848.75;;;12.72;100.00
70370;BME280;57790;51.356;-2.906;2022-12-11T14:33:30;100848.09;;;12.70;100.00
70370;BME280;57790;51.356;-2.906;2022-12-11T14:36:33;100857.09;;;12.69;100.00
70370;BME280;57790;51.356;-2.906;2022-12-11T14:39:39;100854.66;;;12.60;100.00
70370;BME280;57790;51.356;-2.906;2022-12-11T14:42:54;100860.47;;;12.55;100.00
70370;BME280;57790;51.356;-2.906;2022-12-11T14:46:00;100861.47;;;12.54;100.00
70370;BME280;57790;51.356;-2.906;2022-12-11T14:49:35;100857.34;;;12.51;100.00
70370;BME280;57790;51.356;-2.906;2022-12-11T14:52:43;100855.53;;;12.44;100.00
70370;BME280;57790;51.356;-2.906;2022-12-11T14:55:48;100864.84;;;12.40;100.00
70370;BME280;57790;51.356;-2.906;2022-12-11T14:59:01;100855.88;;;12.41;100.00
70370;BME280;57790;51.356;-2.906;2022-12-11T15:02:21;100855.91;;;12.33;100.00
70370;BME280;57790;51.356;-2.906;2022-12-11T15:05:22;100852.25;;;12.34;100.00
70370;BME280;57790;51.356;-2.906;2022-12-11T15:08:28;100853.22;;;12.41;100.00
70370;BME280;57790;51.356;-2.906;2022-12-11T15:11:30;100854.03;;;12.41;100.00
70370;BME280;57790;51.356;-2.906;2022-12-11T15:14:32;100848.13;;;12.31;100.00
70370;BME280;57790;51.356;-2.906;2022-12-11T15:17:34;100848.59;;;12.35;100.00
70370;BME280;57790;51.356;-2.906;2022-12-11T15:20:36;100853.94;;;12.27;100.00
70370;BME280;57790;51.356;-2.906;2022-12-11T15:23:51;100854.28;;;12.24;100.00
70370;BME280;57790;51.356;-2.906;2022-12-11T15:26:56;100856.75;;;12.25;100.00
70370;BME280;57790;51.356;-2.906;2022-12-11T15:29:57;100853.97;;;12.10;100.00
70370;BME280;57790;51.356;-2.906;2022-12-11T15:33:16;100861.28;;;12.08;100.00
70370;BME280;57790;51.356;-2.906;2022-12-11T15:36:23;100860.63;;;12.06;100.00
70370;BME280;57790;51.356;-2.906;2022-12-11T15:39:24;100861.63;;;11.97;100.00
70370;BME280;57790;51.356;-2.906;2022-12-11T15:42:34;100863.47;;;11.97;100.00
70370;BME280;57790;51.356;-2.906;2022-12-11T15:45:35;100859.66;;;11.91;100.00
70370;BME280;57790;51.356;-2.906;2022-12-11T15:48:35;100871.28;;;11.90;100.00
70370;BME280;57790;51.356;-2.906;2022-12-11T15:51:36;100867.28;;;11.86;100.00
70370;BME280;57790;51.356;-2.906;2022-12-11T15:54:36;100876.59;;;11.82;100.00
70370;BME280;57790;51.356;-2.906;2022-12-11T15:57:39;100878.59;;;11.80;100.00
70370;BME280;57790;51.356;-2.906;2022-12-11T16:00:42;100877.06;;;11.77;100.00
70370;BME280;57790;51.356;-2.906;2022-12-11T16:03:45;100875.22;;;11.70;100.00
70370;BME280;57790;51.356;-2.906;2022-12-11T16:06:45;100880.25;;;11.73;100.00
70370;BME280;57790;51.356;-2.906;2022-12-11T16:09:46;100878.41;;;11.65;100.00
70370;BME280;57790;51.356;-2.906;2022-12-11T16:12:46;100883.72;;;11.65;100.00
70370;BME280;57790;51.356;-2.906;2022-12-11T16:15:48;100888.19;;;11.65;100.00
70370;BME280;57790;51.356;-2.906;2022-12-11T16:18:49;100888.88;;;11.58;100.00
70370;BME280;57790;51.356;-2.906;2022-12-11T16:21:51;100896.84;;;11.58;100.00
70370;BME280;57790;51.356;-2.906;2022-12-11T16:24:52;100893.50;;;11.48;100.00
70370;BME280;57790;51.356;-2.906;2022-12-11T16:27:55;100898.47;;;11.51;100.00